Klamath Falls, OR (97603)

1:14 AM PST on February 24, 2017 (GMT -0800)
South Suburban | | Change Station

Elev 4121 ft 42.18 °N, 121.74 °W | Updated 4 minutes ago

Clear
Clear
17.9 °F
Feels Like 18 °F
N
0.0
Wind Variable Wind from North
Gusts 0.0 mph

Today
High -- | Low -- °F
--% Chance of Precip.
Yesterday
High -- | Low -- °F
Precip. -- in
Pressure 30.19 in
Visibility 10.0 miles
Clouds Clear
Windchill 18 °F
Dew Point 15 °F
Humidity 88%
Rainfall Not available.
Snow Depth Not available.
6:49 AM 5:51 PM
Waning Crescent, 6% visible
METAR KLMT 240853Z AUTO 11003KT 10SM CLR M07/M07 A3011 RMK AO2 SLP221 T10721072 51001
Pressure 30.19 in
Visibility 10.0 miles
Clouds Clear
Windchill 18 °F
Dew Point 15 °F
Humidity 88%
Rainfall Not available.
Snow Depth Not available.
6:49 AM 5:51 PM
Waning Crescent, 6% visible
METAR KLMT 240853Z AUTO 11003KT 10SM CLR M07/M07 A3011 RMK AO2 SLP221 T10721072 51001

Get Your Daily Forecast Email!

Thanks for signing up!

Be on the lookout for a verification email in your inbox.

You'll start receiving the daily forecast at 8 AM.

×

10-Day Weather Forecast

Almanac

Astronomy

Feb. 24, 2017 Rise Set
Actual Time
Civil Twilight
Nautical Twilight
Astronomical Twilight
Moon
Length of Visible Light
Length of Day
Tomorrow will be .
, % of the Moon is Illuminated

Today's Extremes

State Highs State Lows

Community

WunderPhotos

Upload Photos

1,962,540 photos uploaded!

WunderBlog® & News

Nearby

Air Quality

  Air Quality AQ Index Pollutant
Not available.

Snow Depth

Station Depth Elevation

Earthquake Activity

City Distance Mag. Time & Date
Minimum magnitude displayed is 2.5.

Coastal Water Temperatures

Place Temperature

Stations

Nearby Weather Stations

Station Location Temp. Windchill Dew Point Humidity Wind Precip. Elev Updated Type
                   

Watches & Warnings

There are currently no watches in effect.